Česky Dansk Deutsch English Español Suomi Français Magyar Italiano Nederlands norsk Polski Português svenska Türkçe

 

Het Weer

Capo Carbonara (Italië)

00:55, 30 juli 2016 (GMT)

NWNNE
WE
SWSSE
Home            
Capo Carbonara Cagliari / Elmas Capo S. Lorenzo Decimomannu Perdasdefogu Capo Bellavista Fonni Capo Frasca Capo Caccia Olbia / Costa Smeralda Alghero Bizerte Guardiavecchia Tabarka Tunis-Carthage Figari Kelibia Trapani / Birgi Annaba Jendouba Solenzara Ajaccio Ustica

Om een weerknop op uw website of weblog te plaatsen, copieer onderstaande code en plak die in uw pagina. In het eerste vakje staat HTML-code, in het tweede vakje UBB-code.


Add to Google

Details

Wind speed:2 bf, 5 kn, 2.6 m/s, 5.8 miles/h, 9.3 km/h
Wind direction:WSW, 250°
Visibility:Greater than 10000 m, 10 km, 32800 ft, 6.2 miles
Clouds:CAVOC
Temperature:27°C, 81°F
Gefühlte Temperatur:28°C, 82°F
Dew-point:16°C, 61°F
Atmospheric pressure:1016 hPa, 762.1 mmHg, 30.00 inHg, 1.003 atm
Relative humidity:51.0 %
METAR:LIEC 300055Z 25005KT CAVOK 27/16 Q1016 RMK SKC QUK / QUL / VIS MAR 20 KM VIS MIN 9999

Snelkoppelingen

Actuele weersinformatie van de hele wereld. Voeg locaties toe met het plus (+) symbool. Deze snelkoppelingen kunnen worden toegevoegd aan Google.

Lid van de Technetium groep

website free tracking
StatCounter NetStat W3C Validator

07-10-2022 02:44:13
astro.technetium.be money.technetium.be phote.technetium.be tafeltennistafel.technetium.be www.ligfiets.net